sensor_id;sensor_type;location;lat;lon;timestamp;P1;P2;P0
49914;PMS5003;35806;47.958;13.158;2023-04-22T00:00:18;11;11;
49914;PMS5003;35806;47.958;13.158;2023-04-22T00:02:46;12;12;
49914;PMS5003;35806;47.958;13.158;2023-04-22T00:05:13;16;13;
49914;PMS5003;35806;47.958;13.158;2023-04-22T00:07:41;12;11;
49914;PMS5003;35806;47.958;13.158;2023-04-22T00:10:09;11;11;
49914;PMS5003;35806;47.958;13.158;2023-04-22T00:12:36;9;9;
49914;PMS5003;35806;47.958;13.158;2023-04-22T00:15:04;12;12;
49914;PMS5003;35806;47.958;13.158;2023-04-22T00:17:33;13;12;
49914;PMS5003;35806;47.958;13.158;2023-04-22T00:20:00;14;11;
49914;PMS5003;35806;47.958;13.158;2023-04-22T00:22:28;10;10;
49914;PMS5003;35806;47.958;13.158;2023-04-22T00:24:55;10;10;
49914;PMS5003;35806;47.958;13.158;2023-04-22T00:27:23;10;9;
49914;PMS5003;35806;47.958;13.158;2023-04-22T00:29:51;10;8;
49914;PMS5003;35806;47.958;13.158;2023-04-22T00:32:17;15;13;
49914;PMS5003;35806;47.958;13.158;2023-04-22T00:34:45;10;10;
49914;PMS5003;35806;47.958;13.158;2023-04-22T00:37:12;10;10;
49914;PMS5003;35806;47.958;13.158;2023-04-22T00:39:40;10;10;
49914;PMS5003;35806;47.958;13.158;2023-04-22T00:42:07;7;7;
49914;PMS5003;35806;47.958;13.158;2023-04-22T00:44:35;8;8;
49914;PMS5003;35806;47.958;13.158;2023-04-22T00:47:02;16;10;
49914;PMS5003;35806;47.958;13.158;2023-04-22T00:49:30;10;8;
49914;PMS5003;35806;47.958;13.158;2023-04-22T00:52:00;11;11;
49914;PMS5003;35806;47.958;13.158;2023-04-22T00:54:28;10;10;
49914;PMS5003;35806;47.958;13.158;2023-04-22T00:56:55;9;9;
49914;PMS5003;35806;47.958;13.158;2023-04-22T00:59:24;9;9;
49914;PMS5003;35806;47.958;13.158;2023-04-22T01:15:59;10;10;
49914;PMS5003;35806;47.958;13.158;2023-04-22T01:18:28;10;10;
49914;PMS5003;35806;47.958;13.158;2023-04-22T01:20:55;14;12;
49914;PMS5003;35806;47.958;13.158;2023-04-22T01:23:22;12;12;
49914;PMS5003;35806;47.958;13.158;2023-04-22T01:25:49;14;11;
49914;PMS5003;35806;47.958;13.158;2023-04-22T01:28:17;12;12;
49914;PMS5003;35806;47.958;13.158;2023-04-22T01:30:44;15;15;
49914;PMS5003;35806;47.958;13.158;2023-04-22T01:33:14;19;16;
49914;PMS5003;35806;47.958;13.158;2023-04-22T01:35:42;19;15;
49914;PMS5003;35806;47.958;13.158;2023-04-22T01:38:11;13;10;
49914;PMS5003;35806;47.958;13.158;2023-04-22T01:40:39;12;10;
49914;PMS5003;35806;47.958;13.158;2023-04-22T01:43:06;12;12;
49914;PMS5003;35806;47.958;13.158;2023-04-22T01:45:34;15;13;
49914;PMS5003;35806;47.958;13.158;2023-04-22T01:48:02;11;11;
49914;PMS5003;35806;47.958;13.158;2023-04-22T01:50:30;10;10;
49914;PMS5003;35806;47.958;13.158;2023-04-22T01:52:57;11;10;
49914;PMS5003;35806;47.958;13.158;2023-04-22T01:55:25;11;10;
49914;PMS5003;35806;47.958;13.158;2023-04-22T01:57:52;12;11;
49914;PMS5003;35806;47.958;13.158;2023-04-22T02:00:19;9;9;
49914;PMS5003;35806;47.958;13.158;2023-04-22T02:02:47;12;10;
49914;PMS5003;35806;47.958;13.158;2023-04-22T02:05:14;12;8;
49914;PMS5003;35806;47.958;13.158;2023-04-22T02:07:41;10;10;
49914;PMS5003;35806;47.958;13.158;2023-04-22T02:10:08;10;10;
49914;PMS5003;35806;47.958;13.158;2023-04-22T02:12:36;9;9;
49914;PMS5003;35806;47.958;13.158;2023-04-22T02:15:03;12;12;
49914;PMS5003;35806;47.958;13.158;2023-04-22T02:17:31;11;10;
49914;PMS5003;35806;47.958;13.158;2023-04-22T02:19:59;8;8;
49914;PMS5003;35806;47.958;13.158;2023-04-22T02:22:26;10;10;
49914;PMS5003;35806;47.958;13.158;2023-04-22T02:24:54;12;11;
49914;PMS5003;35806;47.958;13.158;2023-04-22T02:27:22;10;8;
49914;PMS5003;35806;47.958;13.158;2023-04-22T02:29:49;13;10;
49914;PMS5003;35806;47.958;13.158;2023-04-22T02:32:16;8;8;
49914;PMS5003;35806;47.958;13.158;2023-04-22T02:34:48;11;10;
49914;PMS5003;35806;47.958;13.158;2023-04-22T02:37:15;14;12;
49914;PMS5003;35806;47.958;13.158;2023-04-22T02:39:43;9;9;
49914;PMS5003;35806;47.958;13.158;2023-04-22T02:42:10;10;10;
49914;PMS5003;35806;47.958;13.158;2023-04-22T02:44:37;9;9;
49914;PMS5003;35806;47.958;13.158;2023-04-22T02:47:05;9;9;
49914;PMS5003;35806;47.958;13.158;2023-04-22T02:49:33;11;10;
49914;PMS5003;35806;47.958;13.158;2023-04-22T02:52:05;9;9;
49914;PMS5003;35806;47.958;13.158;2023-04-22T02:54:33;12;11;
49914;PMS5003;35806;47.958;13.158;2023-04-22T02:57:00;9;8;
49914;PMS5003;35806;47.958;13.158;2023-04-22T02:59:27;12;10;
49914;PMS5003;35806;47.958;13.158;2023-04-22T03:01:55;8;8;
49914;PMS5003;35806;47.958;13.158;2023-04-22T03:04:22;12;10;
49914;PMS5003;35806;47.958;13.158;2023-04-22T03:06:48;11;9;
49914;PMS5003;35806;47.958;13.158;2023-04-22T03:09:15;12;11;
49914;PMS5003;35806;47.958;13.158;2023-04-22T03:11:43;11;9;
49914;PMS5003;35806;47.958;13.158;2023-04-22T03:14:10;9;9;
49914;PMS5003;35806;47.958;13.158;2023-04-22T03:16:38;11;9;
49914;PMS5003;35806;47.958;13.158;2023-04-22T03:19:05;8;8;
49914;PMS5003;35806;47.958;13.158;2023-04-22T03:21:33;10;10;
49914;PMS5003;35806;47.958;13.158;2023-04-22T03:24:01;12;9;
49914;PMS5003;35806;47.958;13.158;2023-04-22T03:26:29;8;8;
49914;PMS5003;35806;47.958;13.158;2023-04-22T03:28:56;9;9;
49914;PMS5003;35806;47.958;13.158;2023-04-22T03:31:24;9;8;
49914;PMS5003;35806;47.958;13.158;2023-04-22T03:33:51;11;11;
49914;PMS5003;35806;47.958;13.158;2023-04-22T03:36:18;9;9;
49914;PMS5003;35806;47.958;13.158;2023-04-22T03:38:45;9;9;
49914;PMS5003;35806;47.958;13.158;2023-04-22T03:41:12;11;10;
49914;PMS5003;35806;47.958;13.158;2023-04-22T03:43:40;8;8;
49914;PMS5003;35806;47.958;13.158;2023-04-22T03:46:06;10;10;
49914;PMS5003;35806;47.958;13.158;2023-04-22T03:48:34;12;11;
49914;PMS5003;35806;47.958;13.158;2023-04-22T03:51:02;12;11;
49914;PMS5003;35806;47.958;13.158;2023-04-22T03:53:29;12;12;
49914;PMS5003;35806;47.958;13.158;2023-04-22T03:55:57;9;9;
49914;PMS5003;35806;47.958;13.158;2023-04-22T03:58:30;10;10;
49914;PMS5003;35806;47.958;13.158;2023-04-22T04:00:57;10;10;
49914;PMS5003;35806;47.958;13.158;2023-04-22T04:03:24;10;10;
49914;PMS5003;35806;47.958;13.158;2023-04-22T04:05:51;8;8;
49914;PMS5003;35806;47.958;13.158;2023-04-22T04:08:20;9;9;
49914;PMS5003;35806;47.958;13.158;2023-04-22T04:10:47;9;9;
49914;PMS5003;35806;47.958;13.158;2023-04-22T04:13:14;10;10;
49914;PMS5003;35806;47.958;13.158;2023-04-22T04:15:42;11;10;
49914;PMS5003;35806;47.958;13.158;2023-04-22T04:18:09;10;10;
49914;PMS5003;35806;47.958;13.158;2023-04-22T04:20:37;9;9;
49914;PMS5003;35806;47.958;13.158;2023-04-22T04:23:04;10;10;
49914;PMS5003;35806;47.958;13.158;2023-04-22T04:25:32;12;12;
49914;PMS5003;35806;47.958;13.158;2023-04-22T04:27:59;11;11;
49914;PMS5003;35806;47.958;13.158;2023-04-22T04:30:27;9;9;
49914;PMS5003;35806;47.958;13.158;2023-04-22T04:32:53;10;10;
49914;PMS5003;35806;47.958;13.158;2023-04-22T04:35:21;11;10;
49914;PMS5003;35806;47.958;13.158;2023-04-22T04:37:48;16;12;
49914;PMS5003;35806;47.958;13.158;2023-04-22T04:40:15;10;10;
49914;PMS5003;35806;47.958;13.158;2023-04-22T04:42:42;14;12;
49914;PMS5003;35806;47.958;13.158;2023-04-22T04:45:10;13;11;
49914;PMS5003;35806;47.958;13.158;2023-04-22T04:47:37;15;14;
49914;PMS5003;35806;47.958;13.158;2023-04-22T04:50:06;13;12;
49914;PMS5003;35806;47.958;13.158;2023-04-22T04:52:34;18;17;
49914;PMS5003;35806;47.958;13.158;2023-04-22T04:55:01;15;12;
49914;PMS5003;35806;47.958;13.158;2023-04-22T04:57:29;14;13;
49914;PMS5003;35806;47.958;13.158;2023-04-22T04:59:56;14;12;
49914;PMS5003;35806;47.958;13.158;2023-04-22T05:02:23;12;12;
49914;PMS5003;35806;47.958;13.158;2023-04-22T05:04:51;12;11;
49914;PMS5003;35806;47.958;13.158;2023-04-22T05:07:19;11;11;
49914;PMS5003;35806;47.958;13.158;2023-04-22T05:09:46;12;12;
49914;PMS5003;35806;47.958;13.158;2023-04-22T05:12:14;13;12;
49914;PMS5003;35806;47.958;13.158;2023-04-22T05:14:41;11;11;
49914;PMS5003;35806;47.958;13.158;2023-04-22T05:17:09;13;13;
49914;PMS5003;35806;47.958;13.158;2023-04-22T05:19:36;13;12;
49914;PMS5003;35806;47.958;13.158;2023-04-22T05:22:03;9;9;
49914;PMS5003;35806;47.958;13.158;2023-04-22T05:24:30;10;10;
49914;PMS5003;35806;47.958;13.158;2023-04-22T05:26:57;16;15;
49914;PMS5003;35806;47.958;13.158;2023-04-22T05:29:25;34;31;
49914;PMS5003;35806;47.958;13.158;2023-04-22T05:31:52;17;17;
49914;PMS5003;35806;47.958;13.158;2023-04-22T05:34:20;12;12;
49914;PMS5003;35806;47.958;13.158;2023-04-22T05:36:47;16;14;
49914;PMS5003;35806;47.958;13.158;2023-04-22T05:39:14;9;9;
49914;PMS5003;35806;47.958;13.158;2023-04-22T05:41:42;10;10;
49914;PMS5003;35806;47.958;13.158;2023-04-22T05:44:09;12;12;
49914;PMS5003;35806;47.958;13.158;2023-04-22T05:46:36;9;9;
49914;PMS5003;35806;47.958;13.158;2023-04-22T05:49:04;10;9;
49914;PMS5003;35806;47.958;13.158;2023-04-22T05:51:31;10;10;
49914;PMS5003;35806;47.958;13.158;2023-04-22T05:53:59;14;12;
49914;PMS5003;35806;47.958;13.158;2023-04-22T05:56:26;14;13;
49914;PMS5003;35806;47.958;13.158;2023-04-22T05:58:54;13;13;
49914;PMS5003;35806;47.958;13.158;2023-04-22T06:01:21;16;16;
49914;PMS5003;35806;47.958;13.158;2023-04-22T06:03:48;14;14;
49914;PMS5003;35806;47.958;13.158;2023-04-22T06:06:16;15;15;
49914;PMS5003;35806;47.958;13.158;2023-04-22T06:08:44;15;15;
49914;PMS5003;35806;47.958;13.158;2023-04-22T06:11:11;10;10;
49914;PMS5003;35806;47.958;13.158;2023-04-22T06:13:38;14;13;
49914;PMS5003;35806;47.958;13.158;2023-04-22T06:16:06;12;11;
49914;PMS5003;35806;47.958;13.158;2023-04-22T06:18:34;13;11;
49914;PMS5003;35806;47.958;13.158;2023-04-22T06:21:02;13;11;
49914;PMS5003;35806;47.958;13.158;2023-04-22T06:23:29;11;9;
49914;PMS5003;35806;47.958;13.158;2023-04-22T06:25:57;13;12;
49914;PMS5003;35806;47.958;13.158;2023-04-22T06:28:24;12;10;
49914;PMS5003;35806;47.958;13.158;2023-04-22T06:30:52;11;10;
49914;PMS5003;35806;47.958;13.158;2023-04-22T06:33:19;9;9;
49914;PMS5003;35806;47.958;13.158;2023-04-22T06:35:47;11;9;
49914;PMS5003;35806;47.958;13.158;2023-04-22T06:38:14;12;11;
49914;PMS5003;35806;47.958;13.158;2023-04-22T06:40:42;11;10;
49914;PMS5003;35806;47.958;13.158;2023-04-22T06:43:09;9;8;
49914;PMS5003;35806;47.958;13.158;2023-04-22T06:45:37;13;12;
49914;PMS5003;35806;47.958;13.158;2023-04-22T06:48:03;11;10;
49914;PMS5003;35806;47.958;13.158;2023-04-22T06:50:31;11;11;
49914;PMS5003;35806;47.958;13.158;2023-04-22T06:52:58;9;9;
49914;PMS5003;35806;47.958;13.158;2023-04-22T06:55:26;9;9;
49914;PMS5003;35806;47.958;13.158;2023-04-22T06:57:53;9;7;
49914;PMS5003;35806;47.958;13.158;2023-04-22T07:00:21;8;8;
49914;PMS5003;35806;47.958;13.158;2023-04-22T07:02:49;8;8;
49914;PMS5003;35806;47.958;13.158;2023-04-22T07:05:17;10;9;
49914;PMS5003;35806;47.958;13.158;2023-04-22T07:07:44;8;8;
49914;PMS5003;35806;47.958;13.158;2023-04-22T07:10:11;13;11;
49914;PMS5003;35806;47.958;13.158;2023-04-22T07:12:38;9;9;
49914;PMS5003;35806;47.958;13.158;2023-04-22T07:15:06;10;9;
49914;PMS5003;35806;47.958;13.158;2023-04-22T07:17:34;9;9;
49914;PMS5003;35806;47.958;13.158;2023-04-22T07:20:01;9;9;
49914;PMS5003;35806;47.958;13.158;2023-04-22T07:22:30;10;9;
49914;PMS5003;35806;47.958;13.158;2023-04-22T07:24:57;9;9;
49914;PMS5003;35806;47.958;13.158;2023-04-22T07:27:24;8;8;
49914;PMS5003;35806;47.958;13.158;2023-04-22T07:29:52;9;9;
49914;PMS5003;35806;47.958;13.158;2023-04-22T07:32:19;57;43;
49914;PMS5003;35806;47.958;13.158;2023-04-22T07:34:47;10;10;
49914;PMS5003;35806;47.958;13.158;2023-04-22T07:37:14;10;9;
49914;PMS5003;35806;47.958;13.158;2023-04-22T07:39:41;9;9;
49914;PMS5003;35806;47.958;13.158;2023-04-22T07:42:09;8;8;
49914;PMS5003;35806;47.958;13.158;2023-04-22T07:44:36;9;9;
49914;PMS5003;35806;47.958;13.158;2023-04-22T07:47:04;10;9;
49914;PMS5003;35806;47.958;13.158;2023-04-22T07:49:31;14;13;
49914;PMS5003;35806;47.958;13.158;2023-04-22T07:51:58;7;7;
49914;PMS5003;35806;47.958;13.158;2023-04-22T07:54:25;11;11;
49914;PMS5003;35806;47.958;13.158;2023-04-22T07:56:52;10;9;
49914;PMS5003;35806;47.958;13.158;2023-04-22T07:59:20;9;9;
49914;PMS5003;35806;47.958;13.158;2023-04-22T08:01:47;9;9;
49914;PMS5003;35806;47.958;13.158;2023-04-22T08:04:15;9;8;
49914;PMS5003;35806;47.958;13.158;2023-04-22T08:06:43;8;8;
49914;PMS5003;35806;47.958;13.158;2023-04-22T08:09:10;8;8;
49914;PMS5003;35806;47.958;13.158;2023-04-22T08:11:37;6;5;
49914;PMS5003;35806;47.958;13.158;2023-04-22T08:14:05;8;7;
49914;PMS5003;35806;47.958;13.158;2023-04-22T08:16:32;6;6;
49914;PMS5003;35806;47.958;13.158;2023-04-22T08:19:00;7;7;
49914;PMS5003;35806;47.958;13.158;2023-04-22T08:21:27;6;6;
49914;PMS5003;35806;47.958;13.158;2023-04-22T08:24:15;8;8;
49914;PMS5003;35806;47.958;13.158;2023-04-22T08:26:59;7;7;
49914;PMS5003;35806;47.958;13.158;2023-04-22T08:29:32;5;5;
49914;PMS5003;35806;47.958;13.158;2023-04-22T08:31:59;9;8;
49914;PMS5003;35806;47.958;13.158;2023-04-22T08:34:28;8;8;
49914;PMS5003;35806;47.958;13.158;2023-04-22T08:36:56;8;8;
49914;PMS5003;35806;47.958;13.158;2023-04-22T08:39:23;7;7;
49914;PMS5003;35806;47.958;13.158;2023-04-22T08:41:51;9;7;
49914;PMS5003;35806;47.958;13.158;2023-04-22T08:44:19;6;6;
49914;PMS5003;35806;47.958;13.158;2023-04-22T08:46:48;7;6;
49914;PMS5003;35806;47.958;13.158;2023-04-22T08:49:16;9;6;
49914;PMS5003;35806;47.958;13.158;2023-04-22T08:51:44;5;5;
49914;PMS5003;35806;47.958;13.158;2023-04-22T08:54:12;8;7;
49914;PMS5003;35806;47.958;13.158;2023-04-22T08:56:39;11;11;
49914;PMS5003;35806;47.958;13.158;2023-04-22T08:59:09;7;7;
49914;PMS5003;35806;47.958;13.158;2023-04-22T09:01:37;7;7;
49914;PMS5003;35806;47.958;13.158;2023-04-22T09:04:06;5;5;
49914;PMS5003;35806;47.958;13.158;2023-04-22T09:06:36;8;7;
49914;PMS5003;35806;47.958;13.158;2023-04-22T09:09:04;9;8;
49914;PMS5003;35806;47.958;13.158;2023-04-22T09:11:32;6;6;
49914;PMS5003;35806;47.958;13.158;2023-04-22T09:13:59;6;6;
49914;PMS5003;35806;47.958;13.158;2023-04-22T09:16:28;6;6;
49914;PMS5003;35806;47.958;13.158;2023-04-22T09:18:56;5;4;
49914;PMS5003;35806;47.958;13.158;2023-04-22T09:21:24;8;7;
49914;PMS5003;35806;47.958;13.158;2023-04-22T09:23:52;6;6;
49914;PMS5003;35806;47.958;13.158;2023-04-22T09:26:20;6;6;
49914;PMS5003;35806;47.958;13.158;2023-04-22T09:28:49;5;5;
49914;PMS5003;35806;47.958;13.158;2023-04-22T09:31:17;5;5;
49914;PMS5003;35806;47.958;13.158;2023-04-22T09:33:46;6;6;
49914;PMS5003;35806;47.958;13.158;2023-04-22T09:36:15;5;5;
49914;PMS5003;35806;47.958;13.158;2023-04-22T09:38:51;7;7;
49914;PMS5003;35806;47.958;13.158;2023-04-22T09:41:25;7;5;
49914;PMS5003;35806;47.958;13.158;2023-04-22T09:43:54;8;7;
49914;PMS5003;35806;47.958;13.158;2023-04-22T09:46:23;6;6;
49914;PMS5003;35806;47.958;13.158;2023-04-22T09:48:51;4;4;
49914;PMS5003;35806;47.958;13.158;2023-04-22T09:51:20;4;4;
49914;PMS5003;35806;47.958;13.158;2023-04-22T09:53:58;6;6;
49914;PMS5003;35806;47.958;13.158;2023-04-22T09:56:44;7;7;
49914;PMS5003;35806;47.958;13.158;2023-04-22T09:59:21;7;6;
49914;PMS5003;35806;47.958;13.158;2023-04-22T10:01:50;5;5;
49914;PMS5003;35806;47.958;13.158;2023-04-22T10:04:19;5;5;
49914;PMS5003;35806;47.958;13.158;2023-04-22T10:06:46;5;5;
49914;PMS5003;35806;47.958;13.158;2023-04-22T10:09:14;8;6;
49914;PMS5003;35806;47.958;13.158;2023-04-22T10:11:43;6;6;
49914;PMS5003;35806;47.958;13.158;2023-04-22T10:14:10;6;6;
49914;PMS5003;35806;47.958;13.158;2023-04-22T10:16:38;3;3;
49914;PMS5003;35806;47.958;13.158;2023-04-22T10:19:07;3;3;
49914;PMS5003;35806;47.958;13.158;2023-04-22T10:21:39;4;4;
49914;PMS5003;35806;47.958;13.158;2023-04-22T10:24:08;5;5;
49914;PMS5003;35806;47.958;13.158;2023-04-22T10:26:42;5;5;
49914;PMS5003;35806;47.958;13.158;2023-04-22T10:29:15;4;4;
49914;PMS5003;35806;47.958;13.158;2023-04-22T10:31:43;6;6;
49914;PMS5003;35806;47.958;13.158;2023-04-22T10:34:16;7;6;
49914;PMS5003;35806;47.958;13.158;2023-04-22T10:37:00;7;6;
49914;PMS5003;35806;47.958;13.158;2023-04-22T10:39:32;8;8;
49914;PMS5003;35806;47.958;13.158;2023-04-22T10:42:07;7;7;
49914;PMS5003;35806;47.958;13.158;2023-04-22T10:44:44;7;6;
49914;PMS5003;35806;47.958;13.158;2023-04-22T10:47:23;5;5;
49914;PMS5003;35806;47.958;13.158;2023-04-22T10:49:51;4;4;
49914;PMS5003;35806;47.958;13.158;2023-04-22T10:52:34;6;5;
49914;PMS5003;35806;47.958;13.158;2023-04-22T10:55:02;8;8;
49914;PMS5003;35806;47.958;13.158;2023-04-22T10:57:31;9;7;
49914;PMS5003;35806;47.958;13.158;2023-04-22T11:00:15;4;4;
49914;PMS5003;35806;47.958;13.158;2023-04-22T11:02:52;4;4;
49914;PMS5003;35806;47.958;13.158;2023-04-22T11:05:32;5;5;
49914;PMS5003;35806;47.958;13.158;2023-04-22T11:08:01;6;6;
49914;PMS5003;35806;47.958;13.158;2023-04-22T11:10:31;3;3;
49914;PMS5003;35806;47.958;13.158;2023-04-22T11:13:00;3;3;
49914;PMS5003;35806;47.958;13.158;2023-04-22T11:15:28;3;3;
49914;PMS5003;35806;47.958;13.158;2023-04-22T11:17:56;3;3;
49914;PMS5003;35806;47.958;13.158;2023-04-22T11:20:23;6;6;
49914;PMS5003;35806;47.958;13.158;2023-04-22T11:22:51;8;8;
49914;PMS5003;35806;47.958;13.158;2023-04-22T11:25:20;5;5;
49914;PMS5003;35806;47.958;13.158;2023-04-22T11:27:48;5;5;
49914;PMS5003;35806;47.958;13.158;2023-04-22T11:30:16;3;3;
49914;PMS5003;35806;47.958;13.158;2023-04-22T11:32:46;5;5;
49914;PMS5003;35806;47.958;13.158;2023-04-22T11:35:15;5;5;
49914;PMS5003;35806;47.958;13.158;2023-04-22T11:37:45;4;4;
49914;PMS5003;35806;47.958;13.158;2023-04-22T11:40:15;5;4;
49914;PMS5003;35806;47.958;13.158;2023-04-22T11:42:42;3;3;
49914;PMS5003;35806;47.958;13.158;2023-04-22T11:45:10;6;5;
49914;PMS5003;35806;47.958;13.158;2023-04-22T11:47:37;2;2;
49914;PMS5003;35806;47.958;13.158;2023-04-22T11:50:07;4;4;
49914;PMS5003;35806;47.958;13.158;2023-04-22T11:52:44;4;4;
49914;PMS5003;35806;47.958;13.158;2023-04-22T11:55:13;4;4;
49914;PMS5003;35806;47.958;13.158;2023-04-22T11:57:41;5;5;
49914;PMS5003;35806;47.958;13.158;2023-04-22T12:00:11;7;7;
49914;PMS5003;35806;47.958;13.158;2023-04-22T12:02:40;5;5;
49914;PMS5003;35806;47.958;13.158;2023-04-22T12:05:08;5;5;
49914;PMS5003;35806;47.958;13.158;2023-04-22T12:07:36;3;3;
49914;PMS5003;35806;47.958;13.158;2023-04-22T12:10:04;4;4;
49914;PMS5003;35806;47.958;13.158;2023-04-22T12:12:32;4;4;
49914;PMS5003;35806;47.958;13.158;2023-04-22T12:15:05;4;4;
49914;PMS5003;35806;47.958;13.158;2023-04-22T12:17:33;3;3;
49914;PMS5003;35806;47.958;13.158;2023-04-22T12:20:01;6;6;
49914;PMS5003;35806;47.958;13.158;2023-04-22T12:22:29;4;4;
49914;PMS5003;35806;47.958;13.158;2023-04-22T12:24:57;6;6;
49914;PMS5003;35806;47.958;13.158;2023-04-22T12:27:25;5;5;
49914;PMS5003;35806;47.958;13.158;2023-04-22T12:29:53;6;6;
49914;PMS5003;35806;47.958;13.158;2023-04-22T12:32:22;6;5;
49914;PMS5003;35806;47.958;13.158;2023-04-22T12:34:51;4;4;
49914;PMS5003;35806;47.958;13.158;2023-04-22T12:37:18;5;5;
49914;PMS5003;35806;47.958;13.158;2023-04-22T12:39:46;1;1;
49914;PMS5003;35806;47.958;13.158;2023-04-22T12:42:13;2;2;
49914;PMS5003;35806;47.958;13.158;2023-04-22T12:44:41;2;2;
49914;PMS5003;35806;47.958;13.158;2023-04-22T12:47:08;1;1;
49914;PMS5003;35806;47.958;13.158;2023-04-22T12:49:36;1;1;
49914;PMS5003;35806;47.958;13.158;2023-04-22T12:52:04;1;1;
49914;PMS5003;35806;47.958;13.158;2023-04-22T12:54:31;5;3;
49914;PMS5003;35806;47.958;13.158;2023-04-22T12:56:58;5;4;
49914;PMS5003;35806;47.958;13.158;2023-04-22T12:59:26;5;4;
49914;PMS5003;35806;47.958;13.158;2023-04-22T13:01:53;2;2;
49914;PMS5003;35806;47.958;13.158;2023-04-22T13:04:20;5;5;
49914;PMS5003;35806;47.958;13.158;2023-04-22T13:06:48;6;5;
49914;PMS5003;35806;47.958;13.158;2023-04-22T13:09:15;3;3;
49914;PMS5003;35806;47.958;13.158;2023-04-22T13:11:43;1;1;
49914;PMS5003;35806;47.958;13.158;2023-04-22T13:14:10;1;1;
49914;PMS5003;35806;47.958;13.158;2023-04-22T13:16:38;3;2;
49914;PMS5003;35806;47.958;13.158;2023-04-22T13:19:06;3;3;
49914;PMS5003;35806;47.958;13.158;2023-04-22T13:21:33;4;3;
49914;PMS5003;35806;47.958;13.158;2023-04-22T13:24:00;3;3;
49914;PMS5003;35806;47.958;13.158;2023-04-22T13:26:28;3;3;
49914;PMS5003;35806;47.958;13.158;2023-04-22T13:28:55;2;2;
49914;PMS5003;35806;47.958;13.158;2023-04-22T13:31:23;3;3;
49914;PMS5003;35806;47.958;13.158;2023-04-22T13:33:50;4;4;
49914;PMS5003;35806;47.958;13.158;2023-04-22T13:36:18;5;5;
49914;PMS5003;35806;47.958;13.158;2023-04-22T13:38:45;5;5;
49914;PMS5003;35806;47.958;13.158;2023-04-22T13:41:13;4;4;
49914;PMS5003;35806;47.958;13.158;2023-04-22T13:43:40;5;5;
49914;PMS5003;35806;47.958;13.158;2023-04-22T13:46:07;4;4;
49914;PMS5003;35806;47.958;13.158;2023-04-22T13:48:35;5;4;
49914;PMS5003;35806;47.958;13.158;2023-04-22T13:51:03;4;4;
49914;PMS5003;35806;47.958;13.158;2023-04-22T13:53:30;4;4;
49914;PMS5003;35806;47.958;13.158;2023-04-22T13:55:57;3;3;
49914;PMS5003;35806;47.958;13.158;2023-04-22T13:58:25;3;3;
49914;PMS5003;35806;47.958;13.158;2023-04-22T14:00:52;6;6;
49914;PMS5003;35806;47.958;13.158;2023-04-22T14:03:20;6;6;
49914;PMS5003;35806;47.958;13.158;2023-04-22T14:05:47;6;6;
49914;PMS5003;35806;47.958;13.158;2023-04-22T14:08:15;4;4;
49914;PMS5003;35806;47.958;13.158;2023-04-22T14:10:42;5;5;
49914;PMS5003;35806;47.958;13.158;2023-04-22T14:13:09;3;3;
49914;PMS5003;35806;47.958;13.158;2023-04-22T14:15:37;2;2;
49914;PMS5003;35806;47.958;13.158;2023-04-22T14:18:04;5;5;
49914;PMS5003;35806;47.958;13.158;2023-04-22T14:20:32;3;3;
49914;PMS5003;35806;47.958;13.158;2023-04-22T14:22:59;4;4;
49914;PMS5003;35806;47.958;13.158;2023-04-22T14:25:27;3;3;
49914;PMS5003;35806;47.958;13.158;2023-04-22T14:27:54;3;3;
49914;PMS5003;35806;47.958;13.158;2023-04-22T14:30:22;4;4;
49914;PMS5003;35806;47.958;13.158;2023-04-22T14:32:49;3;3;
49914;PMS5003;35806;47.958;13.158;2023-04-22T14:35:17;4;3;
49914;PMS5003;35806;47.958;13.158;2023-04-22T14:37:44;6;5;
49914;PMS5003;35806;47.958;13.158;2023-04-22T14:40:12;6;6;
49914;PMS5003;35806;47.958;13.158;2023-04-22T14:42:39;6;6;
49914;PMS5003;35806;47.958;13.158;2023-04-22T14:45:07;2;2;
49914;PMS5003;35806;47.958;13.158;2023-04-22T14:47:35;6;5;
49914;PMS5003;35806;47.958;13.158;2023-04-22T14:50:03;5;5;
49914;PMS5003;35806;47.958;13.158;2023-04-22T14:52:32;4;4;
49914;PMS5003;35806;47.958;13.158;2023-04-22T14:54:59;5;5;
49914;PMS5003;35806;47.958;13.158;2023-04-22T14:57:27;5;5;
49914;PMS5003;35806;47.958;13.158;2023-04-22T14:59:54;5;5;
49914;PMS5003;35806;47.958;13.158;2023-04-22T15:02:22;6;6;
49914;PMS5003;35806;47.958;13.158;2023-04-22T15:04:49;4;4;
49914;PMS5003;35806;47.958;13.158;2023-04-22T15:07:22;4;4;
49914;PMS5003;35806;47.958;13.158;2023-04-22T15:09:49;4;4;
49914;PMS5003;35806;47.958;13.158;2023-04-22T15:12:17;5;4;
49914;PMS5003;35806;47.958;13.158;2023-04-22T15:14:44;4;4;
49914;PMS5003;35806;47.958;13.158;2023-04-22T15:17:12;4;4;
49914;PMS5003;35806;47.958;13.158;2023-04-22T15:19:39;3;3;
49914;PMS5003;35806;47.958;13.158;2023-04-22T15:22:07;5;5;
49914;PMS5003;35806;47.958;13.158;2023-04-22T15:24:34;5;5;
49914;PMS5003;35806;47.958;13.158;2023-04-22T15:27:02;4;4;
49914;PMS5003;35806;47.958;13.158;2023-04-22T15:29:30;5;4;
49914;PMS5003;35806;47.958;13.158;2023-04-22T15:31:57;5;5;
49914;PMS5003;35806;47.958;13.158;2023-04-22T15:34:25;5;5;
49914;PMS5003;35806;47.958;13.158;2023-04-22T15:36:52;4;4;
49914;PMS5003;35806;47.958;13.158;2023-04-22T15:39:20;5;5;
49914;PMS5003;35806;47.958;13.158;2023-04-22T15:41:48;4;4;
49914;PMS5003;35806;47.958;13.158;2023-04-22T15:44:16;8;8;
49914;PMS5003;35806;47.958;13.158;2023-04-22T15:46:43;6;6;
49914;PMS5003;35806;47.958;13.158;2023-04-22T15:49:11;7;7;
49914;PMS5003;35806;47.958;13.158;2023-04-22T15:51:38;6;6;
49914;PMS5003;35806;47.958;13.158;2023-04-22T15:54:06;7;6;
49914;PMS5003;35806;47.958;13.158;2023-04-22T15:56:34;4;4;
49914;PMS5003;35806;47.958;13.158;2023-04-22T15:59:01;7;7;
49914;PMS5003;35806;47.958;13.158;2023-04-22T16:01:29;6;6;
49914;PMS5003;35806;47.958;13.158;2023-04-22T16:03:57;6;5;
49914;PMS5003;35806;47.958;13.158;2023-04-22T16:06:24;6;6;
49914;PMS5003;35806;47.958;13.158;2023-04-22T16:08:51;7;7;
49914;PMS5003;35806;47.958;13.158;2023-04-22T16:11:19;5;5;
49914;PMS5003;35806;47.958;13.158;2023-04-22T16:13:46;6;6;
49914;PMS5003;35806;47.958;13.158;2023-04-22T16:16:14;6;6;
49914;PMS5003;35806;47.958;13.158;2023-04-22T16:18:42;5;5;
49914;PMS5003;35806;47.958;13.158;2023-04-22T16:21:09;7;7;
49914;PMS5003;35806;47.958;13.158;2023-04-22T16:23:37;8;8;
49914;PMS5003;35806;47.958;13.158;2023-04-22T16:26:04;8;8;
49914;PMS5003;35806;47.958;13.158;2023-04-22T16:28:31;6;6;
49914;PMS5003;35806;47.958;13.158;2023-04-22T16:30:58;4;4;
49914;PMS5003;35806;47.958;13.158;2023-04-22T16:33:26;8;7;
49914;PMS5003;35806;47.958;13.158;2023-04-22T16:35:53;7;7;
49914;PMS5003;35806;47.958;13.158;2023-04-22T16:38:21;7;7;
49914;PMS5003;35806;47.958;13.158;2023-04-22T16:40:49;6;6;
49914;PMS5003;35806;47.958;13.158;2023-04-22T16:43:16;7;7;